Time;durP1;ratioP1;P1;durP2;ratioP2;P2;SDS_P1;SDS_P2;PMS_P1;PMS_P2;Temp;Humidity;BMP_temperature;BMP_pressure;BME280_temperature;BME280_humidity;BME280_pressure;Samples;Min_cycle;Max_cycle;Signal;HPM_P1;HPM_P2
2022/07/13 00:00:23;;;;;;;1.23;0.40;;;19.60;99.90;;;;;;10266306;28;20109;-61
2022/07/13 00:05:25;;;;;;;0.63;0.30;;;19.50;99.90;;;;;;10268421;28;20047;-60
2022/07/13 00:10:27;;;;;;;1.02;0.30;;;19.50;99.90;;;;;;10267104;28;20051;-60
2022/07/13 00:15:28;;;;;;;1.60;0.30;;;19.50;99.90;;;;;;10270155;28;20066;-61
2022/07/13 00:20:30;;;;;;;2.65;0.40;;;19.50;99.90;;;;;;10275182;28;20051;-60
2022/07/13 00:25:32;;;;;;;0.95;0.63;;;19.50;99.90;;;;;;10273834;28;20050;-61
2022/07/13 00:30:33;;;;;;;3.67;0.40;;;19.50;99.90;;;;;;10273534;28;20054;-62
2022/07/13 00:35:35;;;;;;;2.80;0.30;;;19.50;99.90;;;;;;10273707;28;20051;-61
2022/07/13 00:40:37;;;;;;;1.33;0.40;;;19.60;99.90;;;;;;10270538;28;20117;-61
2022/07/13 00:45:39;;;;;;;2.65;0.40;;;19.50;99.90;;;;;;10269127;28;20053;-61
2022/07/13 00:50:41;;;;;;;4.90;0.70;;;19.40;99.90;;;;;;10272181;28;20490;-62
2022/07/13 00:55:44;;;;;;;4.32;0.40;;;19.40;99.90;;;;;;10272301;28;20533;-62
2022/07/13 01:00:46;;;;;;;0.55;0.30;;;19.30;99.90;;;;;;10272032;28;20065;-62
2022/07/13 01:05:48;;;;;;;3.08;0.40;;;19.40;99.90;;;;;;10272241;28;20117;-62
2022/07/13 01:10:50;;;;;;;3.42;0.40;;;19.40;99.90;;;;;;10272789;28;20055;-62
2022/07/13 01:15:52;;;;;;;2.45;0.40;;;19.40;99.90;;;;;;10271660;28;20051;-62
2022/07/13 01:20:54;;;;;;;1.73;0.30;;;19.30;99.90;;;;;;10272977;28;20378;-62
2022/07/13 01:25:57;;;;;;;5.25;0.40;;;19.20;99.90;;;;;;10270190;28;20089;-62
2022/07/13 01:30:58;;;;;;;2.25;0.38;;;19.20;99.90;;;;;;10273068;28;20068;-62
2022/07/13 01:36:00;;;;;;;1.30;0.40;;;19.20;99.90;;;;;;10272988;28;20070;-62
2022/07/13 01:41:03;;;;;;;1.77;0.50;;;19.20;99.90;;;;;;10273016;28;20050;-62
2022/07/13 01:46:05;;;;;;;0.80;0.40;;;19.20;99.90;;;;;;10271721;28;20672;-62
2022/07/13 01:51:07;;;;;;;2.10;0.65;;;19.20;99.90;;;;;;10271040;28;20055;-62
2022/07/13 01:56:15;;;;;;;1.75;0.38;;;19.10;99.90;;;;;;10270699;28;20057;-62
2022/07/13 02:01:17;;;;;;;3.15;0.43;;;19.00;99.90;;;;;;10269732;28;20418;-62
2022/07/13 02:06:18;;;;;;;0.70;0.57;;;19.00;99.90;;;;;;10267543;28;20070;-61
2022/07/13 02:11:20;;;;;;;2.47;1.23;;;19.00;99.90;;;;;;10270430;28;20046;-61
2022/07/13 02:16:22;;;;;;;2.42;0.85;;;18.90;99.90;;;;;;10269022;28;20043;-61
2022/07/13 02:21:24;;;;;;;6.55;1.20;;;18.90;99.90;;;;;;10267732;28;20051;-61
2022/07/13 02:26:26;;;;;;;1.65;0.50;;;18.80;99.90;;;;;;10268583;28;20058;-61
2022/07/13 02:31:28;;;;;;;1.70;0.63;;;18.70;99.90;;;;;;10268557;28;20051;-61
2022/07/13 02:36:30;;;;;;;1.52;0.50;;;18.60;99.90;;;;;;10269957;28;20134;-61
2022/07/13 02:41:31;;;;;;;0.98;0.52;;;18.60;99.90;;;;;;10268431;28;20051;-62
2022/07/13 02:46:33;;;;;;;0.93;0.40;;;18.50;99.90;;;;;;10267478;28;20054;-62
2022/07/13 02:51:35;;;;;;;1.35;0.65;;;18.50;99.90;;;;;;10266180;28;20043;-61
2022/07/13 02:56:37;;;;;;;2.60;0.50;;;18.50;99.90;;;;;;10267932;28;20055;-61
2022/07/13 03:01:39;;;;;;;0.52;0.38;;;18.40;99.90;;;;;;10268331;28;20051;-61
2022/07/13 03:06:40;;;;;;;1.58;0.40;;;18.30;99.90;;;;;;10268035;28;20093;-61
2022/07/13 03:11:42;;;;;;;1.20;0.63;;;18.40;99.90;;;;;;10269215;28;20077;-61
2022/07/13 03:16:44;;;;;;;2.67;0.55;;;18.40;99.90;;;;;;10269375;28;20109;-61
2022/07/13 03:21:46;;;;;;;5.00;1.00;;;18.40;99.90;;;;;;10268533;28;20097;-62
2022/07/13 03:26:47;;;;;;;3.60;0.50;;;18.50;99.90;;;;;;10267507;28;20054;-62
2022/07/13 03:31:49;;;;;;;2.50;0.52;;;18.40;99.90;;;;;;10266753;28;20458;-60
2022/07/13 03:36:51;;;;;;;2.75;0.50;;;18.40;99.90;;;;;;10268260;28;20055;-60
2022/07/13 03:41:53;;;;;;;4.97;0.50;;;18.40;99.90;;;;;;10268069;28;20082;-61
2022/07/13 03:46:54;;;;;;;1.45;0.50;;;18.50;99.90;;;;;;10268594;28;20908;-61
2022/07/13 03:51:56;;;;;;;1.70;0.60;;;18.60;99.90;;;;;;10271072;28;20525;-61
2022/07/13 03:56:58;;;;;;;5.60;0.55;;;18.60;99.90;;;;;;10275803;28;20794;-61
2022/07/13 04:02:00;;;;;;;2.85;0.50;;;18.50;99.90;;;;;;10269885;28;20061;-61
2022/07/13 04:07:02;;;;;;;1.55;0.50;;;18.50;99.90;;;;;;10274544;28;20236;-61
2022/07/13 04:12:04;;;;;;;2.42;0.60;;;18.60;99.90;;;;;;10274666;28;20145;-61
2022/07/13 04:17:05;;;;;;;3.17;0.60;;;18.70;99.90;;;;;;10274480;28;20047;-60
2022/07/13 04:22:07;;;;;;;2.33;0.57;;;18.80;99.90;;;;;;10270122;28;20497;-61
2022/07/13 04:27:09;;;;;;;1.02;0.60;;;18.80;99.90;;;;;;10273720;28;20494;-61
2022/07/13 04:32:10;;;;;;;0.88;0.47;;;18.80;99.90;;;;;;10272765;28;20426;-61
2022/07/13 04:37:12;;;;;;;2.28;0.70;;;18.90;99.90;;;;;;10273735;28;20038;-63
2022/07/13 04:42:14;;;;;;;1.73;0.60;;;18.90;99.90;;;;;;10263213;28;20063;-63
2022/07/13 04:47:15;;;;;;;6.05;0.63;;;18.90;99.90;;;;;;10271828;28;20051;-63
2022/07/13 04:52:17;;;;;;;7.63;0.63;;;18.90;99.90;;;;;;10271318;28;20046;-63
2022/07/13 04:57:19;;;;;;;5.95;1.42;;;19.00;99.90;;;;;;10272878;28;20050;-63
2022/07/13 05:02:20;;;;;;;2.85;0.68;;;19.00;99.90;;;;;;10275243;28;20359;-63
2022/07/13 05:07:22;;;;;;;3.88;0.75;;;19.00;99.90;;;;;;10272161;28;20082;-63
2022/07/13 05:12:24;;;;;;;4.18;0.70;;;19.00;99.90;;;;;;10262847;28;20062;-63
2022/07/13 05:17:26;;;;;;;2.10;0.63;;;19.10;99.90;;;;;;10268767;28;22510;-63
2022/07/13 05:22:28;;;;;;;8.30;0.63;;;19.20;99.90;;;;;;10257569;28;20047;-63
2022/07/13 05:27:29;;;;;;;4.70;0.70;;;19.40;99.90;;;;;;10269644;28;20058;-63
2022/07/13 05:32:31;;;;;;;1.20;0.52;;;19.60;99.90;;;;;;10270970;28;20802;-62
2022/07/13 05:37:33;;;;;;;3.38;0.75;;;19.70;99.90;;;;;;10274107;28;20458;-62
2022/07/13 05:42:35;;;;;;;3.15;0.65;;;19.80;99.90;;;;;;10268943;28;20512;-62
2022/07/13 05:47:37;;;;;;;3.63;0.68;;;20.00;99.90;;;;;;10270095;28;20043;-62
2022/07/13 05:52:39;;;;;;;1.85;0.50;;;19.90;99.90;;;;;;10269403;28;20050;-59
2022/07/13 05:57:41;;;;;;;3.08;0.80;;;20.10;99.90;;;;;;10268275;28;20046;-60
2022/07/13 06:02:43;;;;;;;1.98;0.70;;;20.30;99.90;;;;;;10269647;28;20058;-60
2022/07/13 06:07:45;;;;;;;3.28;0.60;;;20.40;99.90;;;;;;10269995;28;20096;-60
2022/07/13 06:12:47;;;;;;;2.55;0.50;;;20.50;99.90;;;;;;10268871;28;20057;-60
2022/07/13 06:17:48;;;;;;;1.75;0.70;;;20.60;99.90;;;;;;10266778;28;20050;-60
2022/07/13 06:28:11;;;;;;;2.35;0.75;;;20.70;99.90;;;;;;10265402;28;20054;-60
2022/07/13 06:33:12;;;;;;;2.47;0.88;;;20.90;99.90;;;;;;10267672;28;20484;-60
2022/07/13 06:38:15;;;;;;;0.90;0.70;;;21.00;99.90;;;;;;10269787;28;20055;-61
2022/07/13 06:43:17;;;;;;;4.45;1.08;;;21.20;99.90;;;;;;10269024;28;20489;-61
2022/07/13 06:48:18;;;;;;;3.50;1.08;;;21.50;99.90;;;;;;10269046;28;20062;-61
2022/07/13 06:53:20;;;;;;;1.45;0.60;;;21.60;99.90;;;;;;10267537;28;20062;-58
2022/07/13 06:58:23;;;;;;;5.80;0.80;;;21.80;99.90;;;;;;10265913;28;20046;-58
2022/07/13 07:03:25;;;;;;;1.58;0.50;;;22.00;99.90;;;;;;10268279;28;20113;-58
2022/07/13 07:08:27;;;;;;;9.90;1.15;;;22.20;99.90;;;;;;10251038;28;23707;-59
2022/07/13 07:13:28;;;;;;;2.53;0.93;;;22.40;99.90;;;;;;10270156;28;20665;-58
2022/07/13 07:18:30;;;;;;;10.32;0.80;;;22.50;99.90;;;;;;10249461;28;20461;-58
2022/07/13 07:23:32;;;;;;;7.15;0.60;;;22.80;99.90;;;;;;10267963;28;20046;-61
2022/07/13 07:28:35;;;;;;;5.50;0.80;;;22.80;99.90;;;;;;10266305;28;20047;-60
2022/07/13 07:33:37;;;;;;;4.38;0.80;;;23.10;99.90;;;;;;10267586;28;20501;-60
2022/07/13 07:38:39;;;;;;;2.42;1.25;;;23.30;99.90;;;;;;10266311;28;20101;-61
2022/07/13 07:43:41;;;;;;;1.10;0.40;;;23.40;99.90;;;;;;10265857;28;20051;-61
2022/07/13 07:48:43;;;;;;;3.03;0.50;;;23.70;99.90;;;;;;10272060;28;20168;-61
2022/07/13 07:53:44;;;;;;;1.25;0.40;;;24.10;99.90;;;;;;10271130;28;20062;-61
2022/07/13 07:58:46;;;;;;;3.25;0.40;;;24.30;99.50;;;;;;10266187;28;20051;-61
2022/07/13 08:03:48;;;;;;;0.93;0.50;;;24.30;97.60;;;;;;10266899;28;20051;-61
2022/07/13 08:08:49;;;;;;;6.72;0.35;;;24.40;97.50;;;;;;10267540;28;20117;-61
2022/07/13 08:13:51;;;;;;;3.53;0.40;;;24.40;97.40;;;;;;10263725;28;20452;-61
2022/07/13 08:18:53;;;;;;;3.60;0.40;;;24.50;96.80;;;;;;10265235;28;20051;-61
2022/07/13 08:24:15;;;;;;;4.72;0.50;;;24.70;96.90;;;;;;10264171;28;20051;-61
2022/07/13 08:29:17;;;;;;;3.55;0.32;;;24.90;96.80;;;;;;10266856;28;20054;-61
2022/07/13 08:39:38;;;;;;;2.42;0.30;;;25.10;95.50;;;;;;10270662;28;20081;-61
2022/07/13 08:44:40;;;;;;;4.63;0.45;;;25.00;95.40;;;;;;10274411;28;20051;-61
2022/07/13 08:49:42;;;;;;;3.10;0.50;;;25.10;95.00;;;;;;10272677;28;20058;-58
2022/07/13 08:54:45;;;;;;;3.38;0.40;;;25.10;94.70;;;;;;10271986;28;20066;-58
2022/07/13 08:59:47;;;;;;;1.45;0.43;;;25.50;93.70;;;;;;10271857;28;20051;-58
2022/07/13 09:04:49;;;;;;;2.72;0.32;;;25.60;93.90;;;;;;10272158;28;20090;-59
2022/07/13 09:09:58;;;;;;;1.80;0.40;;;25.80;93.50;;;;;;10267508;28;20050;-60
2022/07/13 09:15:10;;;;;;;1.83;0.30;;;25.60;93.40;;;;;;10268805;28;20065;-59
2022/07/13 09:20:14;;;;;;;0.80;0.30;;;25.90;93.60;;;;;;10272669;28;20051;-60
2022/07/13 09:25:37;;;;;;;2.28;0.30;;;26.00;92.90;;;;;;10272300;28;20050;-60
2022/07/13 09:30:44;;;;;;;6.72;0.55;;;26.20;92.80;;;;;;10271847;28;20070;-59
2022/07/13 09:35:49;;;;;;;13.75;0.60;;;26.40;92.10;;;;;;10271315;28;20085;-59
2022/07/13 09:40:51;;;;;;;1.23;0.60;;;26.50;92.00;;;;;;10270844;28;20058;-58
2022/07/13 09:46:11;;;;;;;1.88;0.30;;;26.50;91.90;;;;;;10267302;28;20055;-59
2022/07/13 09:51:12;;;;;;;5.15;0.68;;;26.50;92.00;;;;;;10268953;28;20106;-59
2022/07/13 09:56:14;;;;;;;3.58;0.30;;;26.50;92.00;;;;;;10268752;28;20109;-59
2022/07/13 10:01:16;;;;;;;2.00;0.30;;;26.70;91.90;;;;;;10268089;28;20046;-59
2022/07/13 10:06:20;;;;;;;0.80;0.40;;;26.80;91.30;;;;;;10268386;28;20083;-59
2022/07/13 10:11:22;;;;;;;4.43;0.28;;;27.00;91.20;;;;;;10268443;28;20383;-59
2022/07/13 10:16:27;;;;;;;0.98;0.68;;;27.30;90.50;;;;;;10270047;28;20697;-59
2022/07/13 10:21:54;;;;;;;0.65;0.20;;;27.30;90.00;;;;;;10268629;28;20050;-59
2022/07/13 10:27:18;;;;;;;2.90;0.52;;;27.60;88.20;;;;;;10267674;28;20082;-59
2022/07/13 10:32:26;;;;;;;0.43;0.15;;;27.70;87.00;;;;;;10267879;28;20481;-59
2022/07/13 10:37:28;;;;;;;3.10;0.30;;;27.80;86.90;;;;;;10265331;28;20054;-58
2022/07/13 10:42:52;;;;;;;1.75;0.20;;;28.00;84.30;;;;;;10266502;28;20053;-59
2022/07/13 10:47:55;;;;;;;2.13;0.20;;;28.10;82.50;;;;;;10267948;28;20042;-59
2022/07/13 10:52:57;;;;;;;6.10;0.30;;;28.10;81.20;;;;;;10265137;28;20109;-60
2022/07/13 10:58:30;;;;;;;0.28;0.20;;;28.30;80.90;;;;;;10266054;28;20476;-60
2022/07/13 11:03:43;;;;;;;0.40;0.22;;;28.40;80.10;;;;;;10268678;28;20521;-60
2022/07/13 11:08:45;;;;;;;1.27;0.20;;;28.40;80.80;;;;;;10267070;28;20138;-59
2022/07/13 11:13:48;;;;;;;0.40;0.20;;;28.40;80.10;;;;;;10268449;28;20398;-59
2022/07/13 11:18:53;;;;;;;0.22;0.20;;;28.50;77.80;;;;;;10267570;28;20121;-59
2022/07/13 11:29:46;;;;;;;0.82;0.30;;;29.10;77.20;;;;;;10264441;28;20041;-60
2022/07/13 11:34:48;;;;;;;3.58;0.20;;;29.60;76.00;;;;;;10265920;28;20055;-61
2022/07/13 11:39:49;;;;;;;4.32;0.20;;;29.70;74.60;;;;;;10269388;28;20556;-60
2022/07/13 11:44:52;;;;;;;0.35;0.20;;;29.70;74.60;;;;;;10269005;28;20113;-60
2022/07/13 11:49:54;;;;;;;0.10;0.10;;;29.80;73.40;;;;;;10265587;28;20062;-62
2022/07/13 11:54:58;;;;;;;1.50;0.32;;;29.90;71.90;;;;;;10264174;28;20046;-60
2022/07/13 12:00:08;;;;;;;0.30;0.10;;;30.50;69.50;;;;;;10266553;28;20047;-60
2022/07/13 12:05:10;;;;;;;4.03;0.20;;;30.50;68.80;;;;;;10265437;28;20054;-60
2022/07/13 12:10:21;;;;;;;1.35;0.20;;;31.30;68.40;;;;;;10268251;28;20051;-60
2022/07/13 12:15:28;;;;;;;0.90;0.20;;;31.20;66.20;;;;;;10274412;28;20525;-60
2022/07/13 12:20:33;;;;;;;1.95;0.20;;;31.50;65.50;;;;;;10273281;28;20078;-61
2022/07/13 12:25:37;;;;;;;2.30;0.17;;;31.60;65.10;;;;;;10273936;28;20057;-61
2022/07/13 12:31:00;;;;;;;1.27;0.20;;;31.90;64.00;;;;;;10270886;28;20049;-61
2022/07/13 12:36:04;;;;;;;5.50;0.20;;;31.70;61.00;;;;;;10272372;28;20055;-62
2022/07/13 12:41:06;;;;;;;0.57;0.10;;;31.50;60.90;;;;;;10272657;28;21335;-63
2022/07/13 12:46:07;;;;;;;1.35;0.20;;;31.40;61.40;;;;;;10271688;28;20066;-61
2022/07/13 12:51:11;;;;;;;2.65;0.20;;;31.30;61.30;;;;;;10269608;28;20137;-61
2022/07/13 12:56:18;;;;;;;0.20;0.20;;;31.30;61.60;;;;;;10271137;28;20065;-62
2022/07/13 13:01:30;;;;;;;3.13;0.15;;;31.40;59.60;;;;;;10271502;28;20557;-62
2022/07/13 13:06:36;;;;;;;0.40;0.10;;;31.30;57.50;;;;;;10272804;28;20042;-62
2022/07/13 13:11:39;;;;;;;1.58;0.10;;;31.40;58.10;;;;;;10268874;28;20062;-62
2022/07/13 13:16:42;;;;;;;3.83;0.20;;;31.40;57.30;;;;;;10269671;28;20097;-62
2022/07/13 13:21:44;;;;;;;1.40;0.20;;;31.50;56.80;;;;;;10270596;28;20364;-61
2022/07/13 13:26:45;;;;;;;0.80;0.10;;;32.10;57.20;;;;;;10271155;28;20462;-62
2022/07/13 13:32:07;;;;;;;0.10;0.10;;;32.20;56.80;;;;;;10271090;28;20449;-61
2022/07/13 13:37:09;;;;;;;2.17;0.10;;;32.10;56.50;;;;;;10271444;28;20158;-60
2022/07/13 13:42:12;;;;;;;3.67;0.20;;;32.20;55.20;;;;;;10268879;28;20054;-61
2022/07/13 13:47:33;;;;;;;3.15;0.10;;;32.10;55.00;;;;;;10270908;28;20839;-65
2022/07/13 13:52:35;;;;;;;6.53;0.30;;;32.20;55.20;;;;;;10267100;28;20063;-61
2022/07/13 13:57:37;;;;;;;2.28;0.10;;;32.50;54.80;;;;;;10269725;28;20109;-62
2022/07/13 14:02:38;;;;;;;0.22;0.10;;;32.70;53.80;;;;;;10268940;28;20043;-62
2022/07/13 14:07:40;;;;;;;1.38;0.35;;;32.80;53.20;;;;;;10268742;28;20417;-62
2022/07/13 14:12:42;;;;;;;2.05;0.20;;;32.70;53.20;;;;;;10270693;28;20058;-63
2022/07/13 14:17:44;;;;;;;4.57;0.20;;;32.90;53.60;;;;;;10269126;28;20053;-63
2022/07/13 14:22:45;;;;;;;1.55;0.13;;;33.50;51.10;;;;;;10268523;28;20067;-63
2022/07/13 14:27:47;;;;;;;1.95;0.10;;;33.70;50.50;;;;;;10268136;28;20061;-63
2022/07/13 14:32:49;;;;;;;0.55;0.10;;;34.10;49.50;;;;;;10269675;28;20057;-62
2022/07/13 14:37:54;;;;;;;0.10;0.10;;;34.00;50.40;;;;;;10268625;28;20153;-61
2022/07/13 14:43:16;;;;;;;4.68;0.13;;;34.40;49.30;;;;;;10266729;28;20528;-59
2022/07/13 14:48:17;;;;;;;3.50;0.10;;;34.80;48.60;;;;;;10271925;28;20054;-61
2022/07/13 14:53:39;;;;;;;4.10;0.17;;;34.70;48.00;;;;;;10262315;28;20125;-61
2022/07/13 14:58:42;;;;;;;1.67;0.10;;;34.70;47.20;;;;;;10267776;28;20651;-61
2022/07/13 15:03:50;;;;;;;2.80;0.60;;;35.20;47.10;;;;;;10268113;28;20190;-60
2022/07/13 15:08:52;;;;;;;2.33;0.22;;;;;;;;;;10270046;28;20070;-60
2022/07/13 15:14:15;;;;;;;1.63;0.20;;;35.30;45.70;;;;;;10266334;28;20390;-59
2022/07/13 15:19:17;;;;;;;2.75;0.20;;;36.00;45.80;;;;;;10268344;28;20047;-59
2022/07/13 15:24:19;;;;;;;3.95;0.00;;;35.60;45.10;;;;;;10266661;28;20051;-59
2022/07/13 15:29:21;;;;;;;1.67;0.10;;;35.20;45.00;;;;;;10267942;28;20042;-60
2022/07/13 15:34:23;;;;;;;2.15;0.10;;;35.40;45.30;;;;;;10268201;28;20062;-60
2022/07/13 15:39:24;;;;;;;0.47;0.10;;;35.50;45.00;;;;;;10268389;28;20053;-62
2022/07/13 15:44:26;;;;;;;4.50;0.10;;;35.80;44.50;;;;;;10268209;28;20066;-62
2022/07/13 15:49:28;;;;;;;0.77;0.10;;;35.40;45.50;;;;;;10273802;28;20057;-63
2022/07/13 15:54:31;;;;;;;3.55;0.10;;;35.50;45.50;;;;;;10271417;28;20054;-63
2022/07/13 15:59:33;;;;;;;0.60;0.30;;;35.50;45.10;;;;;;10273800;28;20062;-63
2022/07/13 16:04:34;;;;;;;0.68;0.10;;;35.70;44.40;;;;;;10273649;28;20313;-63
2022/07/13 16:09:36;;;;;;;0.30;0.10;;;35.70;44.10;;;;;;10273280;28;20043;-63
2022/07/13 16:14:38;;;;;;;2.15;0.10;;;35.60;43.90;;;;;;10274588;28;20113;-63
2022/07/13 16:19:40;;;;;;;1.23;0.40;;;35.60;43.80;;;;;;10273832;28;20101;-63
2022/07/13 16:24:51;;;;;;;0.93;0.10;;;35.50;43.50;;;;;;10275450;28;20125;-63
2022/07/13 16:29:53;;;;;;;1.42;0.05;;;35.60;44.10;;;;;;10273204;28;20061;-64
2022/07/13 16:34:55;;;;;;;0.82;0.10;;;35.70;43.50;;;;;;10273439;28;20050;-63
2022/07/13 16:39:57;;;;;;;0.10;0.00;;;35.70;43.00;;;;;;10273632;28;20062;-62
2022/07/13 16:44:58;;;;;;;1.85;0.10;;;35.70;42.50;;;;;;10272993;28;20058;-64
2022/07/13 16:50:00;;;;;;;1.33;0.10;;;36.30;41.90;;;;;;10269731;28;20501;-64
2022/07/13 16:55:05;;;;;;;1.75;0.10;;;36.10;41.60;;;;;;10252270;28;20049;-63
2022/07/13 17:00:08;;;;;;;0.77;0.08;;;36.20;41.80;;;;;;10272993;28;20054;-63
2022/07/13 17:05:10;;;;;;;;;;;36.40;41.90;;;;;;10273219;28;20047;-63
2022/07/13 17:10:12;;;;;;;0.20;0.10;;;36.60;41.90;;;;;;10253845;28;19927;-64
2022/07/13 17:15:14;;;;;;;0.20;0.00;;;36.20;42.10;;;;;;10269550;28;20054;-65
2022/07/13 17:20:16;;;;;;;2.47;0.10;;;36.30;41.40;;;;;;10273962;28;20047;-65
2022/07/13 17:25:18;;;;;;;1.35;0.10;;;35.70;41.80;;;;;;10271297;28;20054;-64
2022/07/13 17:30:20;;;;;;;2.83;0.10;;;35.80;42.50;;;;;;10272068;28;20039;-63
2022/07/13 17:35:22;;;;;;;0.47;0.10;;;35.30;43.20;;;;;;10268477;28;20857;-62
2022/07/13 17:40:23;;;;;;;0.10;0.10;;;35.60;43.40;;;;;;10269389;28;20046;-62
2022/07/13 17:45:25;;;;;;;0.55;0.10;;;35.20;43.90;;;;;;10270780;28;20046;-63
2022/07/13 17:50:27;;;;;;;3.75;0.20;;;35.20;45.30;;;;;;10259085;28;20054;-63
2022/07/13 17:55:29;;;;;;;0.10;0.10;;;35.40;44.90;;;;;;10270040;28;20065;-63
2022/07/13 18:00:34;;;;;;;2.50;0.40;;;35.40;44.70;;;;;;10268193;28;20543;-63
2022/07/13 18:05:36;;;;;;;8.50;0.40;;;35.30;49.00;;;;;;10268160;28;20522;-63
2022/07/13 18:10:38;;;;;;;1.42;0.30;;;35.00;50.20;;;;;;10270724;28;20709;-62
2022/07/13 18:15:39;;;;;;;2.72;0.40;;;34.70;51.30;;;;;;10262134;28;20046;-61
2022/07/13 18:20:41;;;;;;;0.98;0.45;;;34.00;51.90;;;;;;10268691;28;20046;-62
2022/07/13 18:25:43;;;;;;;1.08;0.40;;;33.20;53.00;;;;;;10269737;28;20061;-62
2022/07/13 18:30:45;;;;;;;0.95;0.30;;;32.70;54.00;;;;;;10271683;28;20358;-62
2022/07/13 18:35:53;;;;;;;1.55;0.45;;;32.10;55.00;;;;;;10270906;28;20050;-62
2022/07/13 18:40:55;;;;;;;6.25;0.50;;;31.80;55.80;;;;;;10265785;28;20661;-61
2022/07/13 18:45:56;;;;;;;1.38;0.40;;;31.40;56.70;;;;;;10268239;28;20055;-62
2022/07/13 18:50:58;;;;;;;6.75;0.30;;;31.00;57.80;;;;;;10269933;28;20055;-69
2022/07/13 18:56:00;;;;;;;2.10;0.40;;;30.70;58.80;;;;;;10269566;28;20046;-64
2022/07/13 19:01:02;;;;;;;3.17;0.45;;;30.40;59.10;;;;;;10265973;28;20074;-63
2022/07/13 19:06:05;;;;;;;0.40;0.30;;;30.10;60.00;;;;;;10263182;28;20066;-63
2022/07/13 19:11:08;;;;;;;3.65;0.30;;;30.00;60.60;;;;;;10267164;28;20493;-63
2022/07/13 19:16:11;;;;;;;3.05;0.40;;;29.90;61.10;;;;;;10263438;28;20053;-64
2022/07/13 19:21:12;;;;;;;1.95;0.40;;;29.80;61.90;;;;;;10261918;28;20379;-64
2022/07/13 19:31:35;;;;;;;0.40;0.30;;;29.50;63.00;;;;;;10266085;28;20489;-63
2022/07/13 19:36:41;;;;;;;4.53;0.60;;;29.30;63.80;;;;;;10267140;28;20055;-63
2022/07/13 19:41:42;;;;;;;4.05;0.30;;;29.00;64.70;;;;;;10267376;28;20075;-63
2022/07/13 19:46:44;;;;;;;3.58;0.40;;;28.90;65.40;;;;;;10268040;28;20563;-63
2022/07/13 19:51:46;;;;;;;1.30;0.20;;;28.80;66.20;;;;;;10267317;28;20445;-63
2022/07/13 19:56:48;;;;;;;0.50;0.38;;;28.50;67.00;;;;;;10272191;28;20493;-63
2022/07/13 20:01:50;;;;;;;3.38;0.50;;;28.40;67.50;;;;;;10266499;28;20362;-62
2022/07/13 20:06:52;;;;;;;1.60;0.30;;;28.30;68.10;;;;;;10265766;28;20050;-64
2022/07/13 20:11:54;;;;;;;1.27;0.40;;;28.20;68.80;;;;;;10245459;28;20524;-64
2022/07/13 20:16:55;;;;;;;0.95;0.45;;;28.10;69.50;;;;;;10267877;28;20054;-64
2022/07/13 20:22:00;;;;;;;2.58;0.50;;;28.00;69.90;;;;;;10267521;28;20066;-64
2022/07/13 20:27:02;;;;;;;3.22;0.73;;;27.80;70.30;;;;;;10268578;28;20050;-64
2022/07/13 20:32:08;;;;;;;4.80;0.40;;;27.80;71.20;;;;;;10269585;28;20086;-64
2022/07/13 20:37:10;;;;;;;4.63;0.50;;;27.70;71.50;;;;;;10274271;28;20054;-63
2022/07/13 20:42:12;;;;;;;1.08;0.60;;;27.60;71.80;;;;;;10275059;28;20042;-63
2022/07/13 20:47:14;;;;;;;0.65;0.40;;;27.60;72.20;;;;;;10273260;28;20054;-63
2022/07/13 20:52:15;;;;;;;2.45;0.57;;;27.50;72.80;;;;;;10280818;28;20057;-63
2022/07/13 20:57:17;;;;;;;2.67;0.40;;;27.30;72.90;;;;;;10274610;28;20059;-63
2022/07/13 21:02:19;;;;;;;3.08;0.50;;;27.10;73.50;;;;;;10272177;28;20054;-63
2022/07/13 21:07:21;;;;;;;1.77;0.40;;;27.00;74.30;;;;;;10275002;28;20133;-63
2022/07/13 21:12:22;;;;;;;3.13;0.47;;;26.80;73.20;;;;;;10274880;28;20045;-64
2022/07/13 21:17:24;;;;;;;3.78;0.57;;;26.90;74.10;;;;;;10276862;28;20049;-64
2022/07/13 21:22:26;;;;;;;2.05;0.40;;;26.70;74.00;;;;;;10276438;28;20061;-64
2022/07/13 21:27:28;;;;;;;1.73;0.50;;;26.70;73.10;;;;;;10256335;28;20152;-63
2022/07/13 21:32:29;;;;;;;3.58;0.50;;;26.70;73.60;;;;;;10268859;28;20058;-63
2022/07/13 21:37:31;;;;;;;4.80;0.60;;;26.60;74.20;;;;;;10272533;28;20062;-63
2022/07/13 21:42:33;;;;;;;1.50;0.40;;;26.60;73.50;;;;;;10319516;23;20050;-90
2022/07/13 21:47:37;;;;;;;4.22;0.57;;;26.50;73.60;;;;;;10282483;28;20050;-90
2022/07/13 21:52:38;;;;;;;3.47;0.40;;;26.40;73.70;;;;;;10272023;28;20153;-89
2022/07/13 21:57:40;;;;;;;0.82;0.40;;;26.30;74.40;;;;;;10274845;28;20030;-89
2022/07/13 22:02:42;;;;;;;1.35;0.50;;;26.30;74.50;;;;;;10261174;28;20109;-89
2022/07/13 22:07:44;;;;;;;0.55;0.50;;;26.20;74.70;;;;;;10307317;28;20046;-89
2022/07/13 22:13:24;;;;;;;2.05;0.40;;;26.10;75.20;;;;;;10287625;28;20053;-89
2022/07/13 22:19:03;;;;;;;1.00;0.40;;;25.90;75.90;;;;;;10289358;28;20058;-89
2022/07/13 22:24:43;;;;;;;1.83;0.80;;;25.80;76.30;;;;;;10301129;28;20050;-89
2022/07/13 22:30:22;;;;;;;0.70;0.40;;;25.70;76.90;;;;;;10313322;28;20056;-89
2022/07/13 22:36:01;;;;;;;3.42;0.50;;;25.70;77.30;;;;;;10278083;28;20081;-90
2022/07/13 22:41:40;;;;;;;2.00;0.30;;;25.60;76.70;;;;;;10281923;28;20054;-90
2022/07/13 22:47:19;;;;;;;0.50;0.30;;;25.60;76.50;;;;;;10308779;28;20054;-90
2022/07/13 22:52:58;;;;;;;4.63;0.50;;;25.60;76.40;;;;;;10305706;28;20034;-90
2022/07/13 22:58:37;;;;;;;2.83;0.50;;;25.60;76.50;;;;;;10288739;28;20050;-91
2022/07/13 23:04:17;;;;;;;0.90;0.60;;;25.60;76.40;;;;;;10309961;28;20093;-91
2022/07/13 23:09:56;;;;;;;1.60;0.30;;;25.60;76.90;;;;;;10257461;28;20202;-90
2022/07/13 23:15:36;;;;;;;1.95;0.40;;;25.50;77.30;;;;;;10292647;28;20085;-90
2022/07/13 23:21:15;;;;;;;2.63;0.40;;;25.40;78.30;;;;;;10295623;28;20144;-90
2022/07/13 23:26:55;;;;;;;2.58;0.50;;;25.30;78.90;;;;;;10286640;28;20544;-91
2022/07/13 23:32:05;;;;;;;2.40;0.40;;;25.30;79.60;;;;;;10277829;28;20153;-90
2022/07/13 23:37:10;;;;;;;2.78;0.40;;;25.10;79.60;;;;;;10307319;28;20397;-90
2022/07/13 23:42:11;;;;;;;0.70;0.30;;;25.00;80.30;;;;;;10294527;28;20519;-91
2022/07/13 23:47:14;;;;;;;1.40;0.50;;;24.90;80.90;;;;;;10281191;28;20123;-91
2022/07/13 23:52:16;;;;;;;2.25;0.43;;;24.80;81.40;;;;;;10297325;28;20089;-90
2022/07/13 23:57:18;;;;;;;2.70;0.40;;;24.80;81.20;;;;;;10280221;28;21394;-90
